createdAt,value
2018-11-11T00:00:04.021Z,23.37
2018-11-11T00:02:33.661Z,24.00
2018-11-11T00:05:04.217Z,22.63
2018-11-11T00:07:33.833Z,20.57
2018-11-11T00:10:03.517Z,21.90
2018-11-11T00:12:36.997Z,22.32
2018-11-11T00:15:12.533Z,23.85
2018-11-11T00:17:43.720Z,23.05
2018-11-11T00:20:13.499Z,23.55
2018-11-11T00:22:43.129Z,22.67
2018-11-11T00:25:12.690Z,24.83
2018-11-11T00:27:44.525Z,22.77
2018-11-11T00:30:17.630Z,23.43
2018-11-11T00:32:49.541Z,21.20
2018-11-11T00:35:20.211Z,24.18
2018-11-11T00:37:49.941Z,22.35
2018-11-11T00:40:22.965Z,22.80
2018-11-11T00:42:55.265Z,22.20
2018-11-11T00:45:25.042Z,22.20
2018-11-11T00:47:55.653Z,21.33
2018-11-11T00:50:25.313Z,21.40
2018-11-11T00:52:56.237Z,20.60
2018-11-11T00:55:30.301Z,20.23
2018-11-11T00:58:05.601Z,20.67
2018-11-11T01:00:35.157Z,19.20
2018-11-11T01:03:09.929Z,19.97
2018-11-11T01:05:45.803Z,20.77
2018-11-11T01:08:15.424Z,19.82
2018-11-11T01:10:45.998Z,21.62
2018-11-11T01:13:15.837Z,19.40
2018-11-11T01:15:47.797Z,21.33
2018-11-11T01:18:17.478Z,21.25
2018-11-11T01:20:51.137Z,21.57
2018-11-11T01:23:21.937Z,21.12
2018-11-11T01:25:51.605Z,19.83
2018-11-11T01:28:23.325Z,22.37
2018-11-11T01:30:52.884Z,22.90
2018-11-11T01:33:24.861Z,22.60
2018-11-11T01:35:58.770Z,22.58
2018-11-11T01:38:30.721Z,21.85
2018-11-11T01:41:00.358Z,22.70
2018-11-11T01:43:31.205Z,25.20
2018-11-11T01:46:05.161Z,23.30
2018-11-11T01:48:36.870Z,24.00
2018-11-11T01:51:06.658Z,23.67
2018-11-11T01:53:36.327Z,22.33
2018-11-11T01:56:09.162Z,23.07
2018-11-11T01:58:40.166Z,24.83
2018-11-11T02:01:10.169Z,24.37
2018-11-11T02:03:49.862Z,24.67
2018-11-11T02:06:21.705Z,25.57
2018-11-11T02:08:56.490Z,26.93
2018-11-11T02:11:26.354Z,25.40
2018-11-11T02:13:56.273Z,24.10
2018-11-11T02:16:26.173Z,27.07
2018-11-11T02:18:55.865Z,27.87
2018-11-11T02:21:29.942Z,26.00
2018-11-11T02:24:00.745Z,28.07
2018-11-11T02:26:30.657Z,27.20
2018-11-11T02:29:00.549Z,24.43
2018-11-11T02:31:30.278Z,26.57
2018-11-11T02:34:00.062Z,24.10
2018-11-11T02:36:31.926Z,23.77
2018-11-11T02:39:01.591Z,26.20
2018-11-11T02:41:31.313Z,24.85
2018-11-11T02:44:00.973Z,28.10
2018-11-11T02:46:31.106Z,26.48
2018-11-11T02:49:01.722Z,25.03
2018-11-11T02:51:32.818Z,29.93
2018-11-11T02:54:03.819Z,31.50
2018-11-11T02:56:35.207Z,28.33
2018-11-11T02:59:07.130Z,27.73
2018-11-11T03:01:39.378Z,29.07
2018-11-11T03:04:10.748Z,28.53
2018-11-11T03:06:41.335Z,30.43
2018-11-11T03:09:12.341Z,31.07
2018-11-11T03:11:43.486Z,29.57
2018-11-11T03:14:13.305Z,29.83
2018-11-11T03:16:47.837Z,30.00
2018-11-11T03:19:18.670Z,31.30
2018-11-11T03:21:48.846Z,31.57
2018-11-11T03:24:19.737Z,30.50
2018-11-11T03:26:51.778Z,29.75
2018-11-11T03:29:23.454Z,32.03
2018-11-11T03:31:56.569Z,29.37
2018-11-11T03:34:26.497Z,27.43
2018-11-11T03:37:00.369Z,28.90
2018-11-11T03:39:30.573Z,32.27
2018-11-11T03:42:01.550Z,31.53
2018-11-11T03:44:33.458Z,32.23
2018-11-11T03:47:02.942Z,30.70
2018-11-11T03:49:32.454Z,32.10
2018-11-11T03:52:02.358Z,34.92
2018-11-11T03:54:32.031Z,33.50
2018-11-11T03:57:02.802Z,32.30
2018-11-11T03:59:32.570Z,32.33
2018-11-11T04:02:02.218Z,32.48
2018-11-11T04:04:36.134Z,31.55
2018-11-11T04:07:08.166Z,32.37
2018-11-11T04:09:41.690Z,32.83
2018-11-11T04:12:12.525Z,34.17
2018-11-11T04:14:45.530Z,36.77
2018-11-11T04:17:15.442Z,31.30
2018-11-11T04:19:45.507Z,36.13
2018-11-11T04:22:18.343Z,35.50
2018-11-11T04:24:52.186Z,33.58
2018-11-11T04:27:23.136Z,35.08
2018-11-11T04:29:56.131Z,32.43
2018-11-11T04:32:26.983Z,36.50
2018-11-11T04:34:59.894Z,33.85
2018-11-11T04:37:34.149Z,32.37
2018-11-11T04:40:04.278Z,32.47
2018-11-11T04:42:34.350Z,33.42
2018-11-11T04:45:03.963Z,32.83
2018-11-11T04:47:33.707Z,33.88
2018-11-11T04:50:07.333Z,31.90
2018-11-11T04:52:38.026Z,32.25
2018-11-11T04:55:08.514Z,29.83
2018-11-11T04:57:38.401Z,32.10
2018-11-11T05:00:10.314Z,30.92
2018-11-11T05:02:41.514Z,30.47
2018-11-11T05:05:13.033Z,30.70
2018-11-11T05:07:42.863Z,31.17
2018-11-11T05:10:13.413Z,31.67
2018-11-11T05:12:46.574Z,31.37
2018-11-11T05:15:16.547Z,32.37
2018-11-11T05:17:46.166Z,30.20
2018-11-11T05:20:15.902Z,30.10
2018-11-11T05:22:48.986Z,31.67
2018-11-11T05:25:19.318Z,28.43
2018-11-11T05:27:53.008Z,30.53
2018-11-11T05:30:23.285Z,30.03
2018-11-11T05:32:57.865Z,28.80
2018-11-11T05:35:31.469Z,28.80
2018-11-11T05:38:02.702Z,34.05
2018-11-11T05:40:33.740Z,26.87
2018-11-11T05:43:15.448Z,26.67
2018-11-11T05:45:47.286Z,27.60
2018-11-11T05:48:17.446Z,29.50
2018-11-11T05:50:48.462Z,28.70
2018-11-11T05:53:18.238Z,31.63
2018-11-11T05:55:48.160Z,32.07
2018-11-11T05:58:18.797Z,31.50
2018-11-11T06:00:49.477Z,31.07
2018-11-11T06:03:28.309Z,32.37
2018-11-11T06:06:05.182Z,30.35
2018-11-11T06:14:05.592Z,29.33
2018-11-11T06:16:39.869Z,30.87
2018-11-11T06:19:15.803Z,32.30
2018-11-11T06:21:47.394Z,30.60
2018-11-11T06:24:18.882Z,29.53
2018-11-11T06:26:53.910Z,27.57
2018-11-11T06:29:26.506Z,29.65
2018-11-11T06:31:58.338Z,27.27
2018-11-11T06:34:30.322Z,28.07
2018-11-11T06:37:01.558Z,30.62
2018-11-11T06:39:35.446Z,29.85
2018-11-11T06:42:06.190Z,28.40
2018-11-11T06:44:40.885Z,29.37
2018-11-11T06:47:11.414Z,28.60
2018-11-11T06:49:41.206Z,30.12
2018-11-11T06:52:12.090Z,31.40
2018-11-11T06:54:43.958Z,29.65
2018-11-11T06:57:16.998Z,30.05
2018-11-11T06:59:47.706Z,26.77
2018-11-11T07:02:17.294Z,28.13
2018-11-11T07:04:46.910Z,27.80
2018-11-11T07:07:21.032Z,29.52
2018-11-11T07:09:50.766Z,27.87
2018-11-11T07:12:20.362Z,27.90
2018-11-11T07:14:49.877Z,29.93
2018-11-11T07:17:19.726Z,28.00
2018-11-11T07:19:49.707Z,30.87
2018-11-11T07:22:20.854Z,29.00
2018-11-11T07:24:50.457Z,29.03
2018-11-11T07:27:21.954Z,27.57
2018-11-11T07:29:51.422Z,26.00
2018-11-11T07:32:21.022Z,29.73
2018-11-11T07:34:51.717Z,25.20
2018-11-11T07:37:21.562Z,26.00
2018-11-11T07:39:51.102Z,29.30
2018-11-11T07:42:24.203Z,26.80
2018-11-11T07:44:53.712Z,28.00
2018-11-11T07:47:24.166Z,28.20
2018-11-11T07:49:53.969Z,26.53
2018-11-11T07:52:23.782Z,24.70
2018-11-11T07:54:54.409Z,26.00
2018-11-11T07:57:31.370Z,24.97
2018-11-11T08:00:01.153Z,24.43
2018-11-11T08:02:30.805Z,27.67
2018-11-11T08:05:00.569Z,24.80
2018-11-11T08:07:34.962Z,26.10
2018-11-11T08:10:15.575Z,25.10
2018-11-11T08:12:45.637Z,24.47
2018-11-11T08:15:15.422Z,24.70
2018-11-11T08:17:46.214Z,25.77
2018-11-11T08:20:16.110Z,23.40
2018-11-11T08:22:47.006Z,24.10
2018-11-11T08:25:17.798Z,23.77
2018-11-11T08:27:47.606Z,26.57
2018-11-11T08:30:17.483Z,25.90
2018-11-11T08:32:53.130Z,27.50
2018-11-11T08:35:22.973Z,23.53
2018-11-11T08:37:52.534Z,25.97
2018-11-11T08:40:24.500Z,25.30
2018-11-11T08:42:54.178Z,25.47
2018-11-11T08:45:33.486Z,24.80
2018-11-11T08:48:03.466Z,25.97
2018-11-11T08:50:33.120Z,24.70
2018-11-11T08:53:07.514Z,24.10
2018-11-11T08:55:37.086Z,23.73
2018-11-11T08:58:06.926Z,24.83
2018-11-11T09:00:36.478Z,23.63
2018-11-11T09:03:07.030Z,20.97
2018-11-11T09:05:37.695Z,20.43
2018-11-11T09:08:07.242Z,23.40
2018-11-11T09:10:36.730Z,22.43
2018-11-11T09:13:06.394Z,20.97
2018-11-11T09:15:36.130Z,22.10
2018-11-11T09:18:05.834Z,20.50
2018-11-11T09:20:35.736Z,23.53
2018-11-11T09:23:06.574Z,20.47
2018-11-11T09:25:37.094Z,21.30
2018-11-11T09:28:08.811Z,21.43
2018-11-11T09:30:38.446Z,22.17
2018-11-11T09:33:09.030Z,21.93
2018-11-11T09:35:38.675Z,21.53
2018-11-11T09:38:09.734Z,21.30
2018-11-11T09:40:40.332Z,21.53
2018-11-11T09:43:10.882Z,23.10
2018-11-11T09:45:41.446Z,22.77
2018-11-11T09:48:11.242Z,20.87
2018-11-11T09:50:46.842Z,18.80
2018-11-11T09:53:18.843Z,19.30
2018-11-11T09:55:50.538Z,17.97
2018-11-11T09:58:22.310Z,17.50
2018-11-11T10:00:53.226Z,18.33
2018-11-11T10:03:31.297Z,17.20
2018-11-11T10:06:19.769Z,16.53
2018-11-11T10:09:00.982Z,17.50
2018-11-11T10:11:50.602Z,17.67
2018-11-11T10:14:31.449Z,15.60
2018-11-11T10:17:08.230Z,17.00
2018-11-11T10:19:45.543Z,15.10
2018-11-11T10:22:23.294Z,16.37
2018-11-11T10:27:00.011Z,15.60
2018-11-11T10:29:35.008Z,15.73
2018-11-11T10:32:18.394Z,17.40
2018-11-11T10:34:54.953Z,17.53
2018-11-11T10:37:27.601Z,19.23
2018-11-11T10:41:01.778Z,19.40
2018-11-11T10:43:40.778Z,21.17
2018-11-11T10:46:22.654Z,21.70
2018-11-11T10:48:56.794Z,18.53
2018-11-11T10:51:26.646Z,19.80
2018-11-11T10:53:58.313Z,17.67
2018-11-11T10:56:27.890Z,13.77
2018-11-11T10:58:57.562Z,15.53
2018-11-11T11:01:31.698Z,14.90
2018-11-11T11:04:01.422Z,14.57
2018-11-11T11:06:36.766Z,14.70
2018-11-11T11:09:12.774Z,13.30
2018-11-11T11:11:43.557Z,15.00
2018-11-11T11:14:14.654Z,14.60
2018-11-11T11:16:44.503Z,16.00
2018-11-11T11:19:14.050Z,13.93
2018-11-11T11:21:43.882Z,15.03
2018-11-11T11:24:13.699Z,14.90
2018-11-11T11:26:43.670Z,14.40
2018-11-11T11:29:13.370Z,13.73
2018-11-11T11:31:43.943Z,12.87
2018-11-11T11:34:13.563Z,15.07
2018-11-11T11:36:47.918Z,13.20
2018-11-11T11:39:17.502Z,13.03
2018-11-11T11:41:47.022Z,13.77
2018-11-11T11:44:18.668Z,13.17
2018-11-11T11:46:49.058Z,14.53
2018-11-11T11:49:18.566Z,13.70
2018-11-11T11:51:48.152Z,14.17
2018-11-11T11:54:17.778Z,12.87
2018-11-11T11:56:48.433Z,12.50
2018-11-11T11:59:19.006Z,13.20
2018-11-11T12:01:48.589Z,11.47
2018-11-11T12:04:19.090Z,11.33
2018-11-11T12:06:48.626Z,12.20
2018-11-11T12:09:19.427Z,12.53
2018-11-11T12:11:49.991Z,12.00
2018-11-11T12:14:19.569Z,12.10
2018-11-11T12:16:51.144Z,13.17
2018-11-11T12:19:20.622Z,15.47
2018-11-11T12:21:51.362Z,16.30
2018-11-11T12:24:21.167Z,14.43
2018-11-11T12:26:52.054Z,12.13
2018-11-11T12:29:22.634Z,12.40
2018-11-11T12:31:52.139Z,13.00
2018-11-11T12:34:22.954Z,12.40
2018-11-11T12:36:52.807Z,13.70
2018-11-11T12:39:23.648Z,12.37
2018-11-11T12:41:55.490Z,14.30
2018-11-11T12:44:25.328Z,12.80
2018-11-11T12:46:55.119Z,14.30
2018-11-11T12:49:25.714Z,13.60
2018-11-11T12:51:56.370Z,13.30
2018-11-11T12:54:29.398Z,14.77
2018-11-11T12:57:03.714Z,15.17
2018-11-11T12:59:33.198Z,16.13
2018-11-11T13:02:03.974Z,16.53
2018-11-11T13:04:34.689Z,17.80
2018-11-11T13:07:07.774Z,16.93
2018-11-11T13:09:37.258Z,18.10
2018-11-11T13:12:15.401Z,17.40
2018-11-11T13:14:47.114Z,17.97
2018-11-11T13:17:17.240Z,18.80
2018-11-11T13:19:47.195Z,17.67
2018-11-11T13:22:17.231Z,17.63
2018-11-11T13:24:46.767Z,19.70
2018-11-11T13:27:16.594Z,19.70
2018-11-11T13:29:48.454Z,17.60
2018-11-11T13:32:18.370Z,19.43
2018-11-11T13:34:48.266Z,19.73
2018-11-11T13:37:18.127Z,19.70
2018-11-11T13:39:49.090Z,20.40
2018-11-11T13:42:22.414Z,21.73
2018-11-11T13:44:52.231Z,21.47
2018-11-11T13:47:23.097Z,22.27
2018-11-11T13:49:53.081Z,22.27
2018-11-11T13:52:24.738Z,21.67
2018-11-11T13:54:55.252Z,22.60
2018-11-11T13:57:25.099Z,22.47
2018-11-11T13:59:54.974Z,21.20
2018-11-11T14:02:25.638Z,22.20
2018-11-11T14:04:55.226Z,22.50
2018-11-11T14:07:25.970Z,24.00
2018-11-11T14:09:55.626Z,24.53
2018-11-11T14:12:26.154Z,27.70
2018-11-11T14:14:56.925Z,25.07
2018-11-11T14:17:27.531Z,25.73
2018-11-11T14:20:02.891Z,24.50
2018-11-11T14:22:37.042Z,24.30
2018-11-11T14:25:14.168Z,23.83
2018-11-11T14:27:44.278Z,22.80
2018-11-11T14:30:19.407Z,22.93
2018-11-11T14:32:50.062Z,22.47
2018-11-11T14:35:20.898Z,22.57
2018-11-11T14:37:51.827Z,21.73
2018-11-11T14:40:26.810Z,22.47
2018-11-11T14:42:57.182Z,20.63
2018-11-11T14:45:27.387Z,20.40
2018-11-11T14:47:58.442Z,20.73
2018-11-11T14:50:29.221Z,20.20
2018-11-11T14:53:04.420Z,20.70
2018-11-11T14:55:37.078Z,21.07
2018-11-11T14:58:10.645Z,19.13
2018-11-11T15:00:40.194Z,19.67
2018-11-11T15:03:14.606Z,22.00
2018-11-11T15:05:46.186Z,20.63
2018-11-11T15:08:16.910Z,20.33
2018-11-11T15:10:46.574Z,21.73
2018-11-11T15:13:16.742Z,21.57
2018-11-11T15:15:49.083Z,22.37
2018-11-11T15:18:18.625Z,21.40
2018-11-11T15:20:49.459Z,21.03
2018-11-11T15:23:19.107Z,21.13
2018-11-11T15:25:49.028Z,20.17
2018-11-11T15:28:19.591Z,20.60
2018-11-11T15:30:49.425Z,22.10
2018-11-11T15:33:19.110Z,22.47
2018-11-11T15:35:48.838Z,21.17
2018-11-11T15:38:19.594Z,20.83
2018-11-11T15:40:49.382Z,22.80
2018-11-11T15:43:19.146Z,22.67
2018-11-11T15:45:48.828Z,21.43
2018-11-11T15:48:23.019Z,22.50
2018-11-11T15:50:52.615Z,22.57
2018-11-11T15:53:22.135Z,22.87
2018-11-11T15:55:52.635Z,20.63
2018-11-11T15:58:25.414Z,21.23
2018-11-11T16:00:56.227Z,22.57
2018-11-11T16:03:27.679Z,21.90
2018-11-11T16:05:57.146Z,21.40
2018-11-11T16:08:30.034Z,21.93
2018-11-11T16:11:00.893Z,22.73
2018-11-11T16:13:32.431Z,25.33
2018-11-11T16:16:02.911Z,24.67
2018-11-11T16:18:37.430Z,22.87
2018-11-11T16:21:06.962Z,23.67
2018-11-11T16:23:36.503Z,24.13
2018-11-11T16:26:09.419Z,21.47
2018-11-11T16:28:39.031Z,23.37
2018-11-11T16:31:08.811Z,21.60
2018-11-11T16:33:38.680Z,22.33
2018-11-11T16:36:12.171Z,23.10
2018-11-11T16:38:41.994Z,24.53
2018-11-11T16:41:11.800Z,22.40
2018-11-11T16:43:44.911Z,23.90
2018-11-11T16:46:19.958Z,23.93
2018-11-11T16:48:57.130Z,24.40
2018-11-11T16:51:27.182Z,23.93
2018-11-11T16:53:56.743Z,23.00
2018-11-11T16:56:27.282Z,27.20
2018-11-11T16:59:07.719Z,23.73
2018-11-11T17:01:37.569Z,26.03
2018-11-11T17:04:07.531Z,26.30
2018-11-11T17:06:37.152Z,26.63
2018-11-11T17:09:11.862Z,26.97
2018-11-11T17:11:42.399Z,25.77
2018-11-11T17:14:18.005Z,29.97
2018-11-11T17:16:47.371Z,25.97
2018-11-11T17:19:19.103Z,25.97
2018-11-11T17:21:48.896Z,26.33
2018-11-11T17:24:19.459Z,25.33
2018-11-11T17:26:54.607Z,24.40
2018-11-11T17:29:25.154Z,25.73
2018-11-11T17:31:54.811Z,23.27
2018-11-11T17:34:25.604Z,23.50
2018-11-11T17:36:56.383Z,24.20
2018-11-11T17:39:27.046Z,22.47
2018-11-11T17:41:56.530Z,22.63
2018-11-11T17:44:27.071Z,25.47
2018-11-11T17:46:57.844Z,24.73
2018-11-11T17:49:27.647Z,25.53
2018-11-11T17:51:57.286Z,25.07
2018-11-11T17:54:32.269Z,26.47
2018-11-11T17:57:01.886Z,24.57
2018-11-11T17:59:35.735Z,27.43
2018-11-11T18:02:09.171Z,24.80
2018-11-11T18:04:38.722Z,24.10
2018-11-11T18:07:08.199Z,25.50
2018-11-11T18:09:38.709Z,22.90
2018-11-11T18:12:08.267Z,25.10
2018-11-11T18:14:37.782Z,24.50
2018-11-11T18:17:07.366Z,24.97
2018-11-11T18:19:43.177Z,26.30
2018-11-11T18:22:14.027Z,24.00
2018-11-11T18:24:45.886Z,25.03
2018-11-11T18:27:15.777Z,23.70
2018-11-11T18:29:47.409Z,26.23
2018-11-11T18:32:21.455Z,24.37
2018-11-11T18:34:51.988Z,22.53
2018-11-11T18:37:27.083Z,22.87
2018-11-11T18:39:56.632Z,22.60
2018-11-11T18:42:26.222Z,23.90
2018-11-11T18:44:57.039Z,22.00
2018-11-11T18:47:26.706Z,22.80
2018-11-11T18:49:57.218Z,22.20
2018-11-11T18:52:26.939Z,21.13
2018-11-11T18:54:56.619Z,21.83
2018-11-11T18:57:28.417Z,19.93
2018-11-11T18:59:58.167Z,22.00
2018-11-11T19:02:31.343Z,22.67
2018-11-11T19:05:00.951Z,20.30
2018-11-11T19:07:34.830Z,21.37
2018-11-11T19:10:07.277Z,20.80
2018-11-11T19:12:36.902Z,21.37
2018-11-11T19:15:13.631Z,19.87
2018-11-11T19:17:44.166Z,20.20
2018-11-11T19:20:18.390Z,18.50
2018-11-11T19:22:48.951Z,19.63
2018-11-11T19:25:22.973Z,17.90
2018-11-11T19:27:55.280Z,20.40
2018-11-11T19:33:03.955Z,20.80
2018-11-11T19:35:33.675Z,19.50
2018-11-11T19:38:03.286Z,21.13
2018-11-11T19:40:33.859Z,21.10
2018-11-11T19:43:05.767Z,19.00
2018-11-11T19:45:36.780Z,20.00
2018-11-11T19:48:06.431Z,19.60
2018-11-11T19:50:36.279Z,21.03
2018-11-11T19:53:05.979Z,20.23
2018-11-11T19:55:36.976Z,21.33
2018-11-11T19:58:06.627Z,19.90
2018-11-11T20:00:39.264Z,21.47
2018-11-11T20:03:11.002Z,20.53
2018-11-11T20:05:40.956Z,19.00
2018-11-11T20:08:10.736Z,20.77
2018-11-11T20:10:41.488Z,20.50
2018-11-11T20:13:15.132Z,21.40
2018-11-11T20:15:50.335Z,20.23
2018-11-11T20:18:21.048Z,21.60
2018-11-11T20:20:50.756Z,20.10
2018-11-11T20:23:20.407Z,22.87
2018-11-11T20:25:51.296Z,20.80
2018-11-11T20:28:21.025Z,22.20
2018-11-11T20:30:51.955Z,22.20
2018-11-11T20:33:22.640Z,21.40
2018-11-11T20:35:53.507Z,20.13
2018-11-11T20:38:23.151Z,20.47
2018-11-11T20:40:54.092Z,21.27
2018-11-11T20:43:27.559Z,22.50
2018-11-11T20:45:57.075Z,22.17
2018-11-11T20:48:30.051Z,21.90
2018-11-11T20:50:59.983Z,21.40
2018-11-11T20:53:31.700Z,21.17
2018-11-11T20:56:01.382Z,20.30
2018-11-11T20:58:30.886Z,21.27
2018-11-11T21:01:02.705Z,20.83
2018-11-11T21:03:32.357Z,21.17
2018-11-11T21:06:03.979Z,21.23
2018-11-11T21:08:33.683Z,21.50
2018-11-11T21:11:03.279Z,22.87
2018-11-11T21:13:34.771Z,20.90
2018-11-11T21:16:04.499Z,22.47
2018-11-11T21:18:36.067Z,22.03
2018-11-11T21:21:05.948Z,20.93
2018-11-11T21:23:36.583Z,21.57
2018-11-11T21:26:07.559Z,19.37
2018-11-11T21:28:40.635Z,22.10
2018-11-11T21:31:11.516Z,20.73
2018-11-11T21:33:41.203Z,21.20
2018-11-11T21:36:12.675Z,20.50
2018-11-11T21:38:43.239Z,21.20
2018-11-11T21:41:16.479Z,22.07
2018-11-11T21:43:45.967Z,20.13
2018-11-11T21:46:19.020Z,20.17
2018-11-11T21:48:48.845Z,20.00
2018-11-11T21:51:18.760Z,23.43
2018-11-11T21:53:48.588Z,18.37
2018-11-11T21:56:18.251Z,19.33
2018-11-11T21:58:47.782Z,21.70
2018-11-11T22:01:18.294Z,18.70
2018-11-11T22:03:50.151Z,20.57
2018-11-11T22:06:27.611Z,21.87
2018-11-11T22:08:57.422Z,18.97
2018-11-11T22:11:27.302Z,18.50
2018-11-11T22:13:57.227Z,17.97
2018-11-11T22:16:27.344Z,18.47
2018-11-11T22:18:59.259Z,19.10
2018-11-11T22:21:29.315Z,17.93
2018-11-11T22:24:01.179Z,18.23
2018-11-11T22:26:30.867Z,19.60
2018-11-11T22:29:00.623Z,20.57
2018-11-11T22:31:39.711Z,18.43
2018-11-11T22:34:14.981Z,19.20
2018-11-11T22:36:47.555Z,17.23
2018-11-11T22:39:17.252Z,20.07
2018-11-11T22:41:47.011Z,21.10
2018-11-11T22:44:16.723Z,19.87
2018-11-11T22:46:51.303Z,18.87
2018-11-11T22:49:21.243Z,20.33
2018-11-11T22:51:51.111Z,18.73
2018-11-11T22:54:22.183Z,19.37
2018-11-11T22:56:53.135Z,20.13
2018-11-11T22:59:26.011Z,20.83
2018-11-11T23:01:58.187Z,18.70
2018-11-11T23:04:33.919Z,20.27
2018-11-11T23:07:05.547Z,20.40
2018-11-11T23:09:36.375Z,19.60
2018-11-11T23:12:08.331Z,22.73
2018-11-11T23:14:40.139Z,22.43
2018-11-11T23:17:12.855Z,21.40
2018-11-11T23:19:42.519Z,18.87
2018-11-11T23:22:12.091Z,19.13
2018-11-11T23:24:43.668Z,20.07
2018-11-11T23:27:13.255Z,22.37
2018-11-11T23:29:42.827Z,20.93
2018-11-11T23:32:12.359Z,21.03
2018-11-11T23:34:41.947Z,20.70
2018-11-11T23:37:11.807Z,24.53
2018-11-11T23:39:41.483Z,22.70
2018-11-11T23:42:11.345Z,20.27
2018-11-11T23:44:42.271Z,22.57
2018-11-11T23:47:14.095Z,22.50
2018-11-11T23:49:44.023Z,21.07
2018-11-11T23:52:15.864Z,23.90
2018-11-11T23:54:55.807Z,23.77
2018-11-11T23:57:27.763Z,22.20
2018-11-11T23:59:58.408Z,24.67
